createdAt,value
2022-10-02T00:02:37.075Z,8.52
2022-10-02T00:05:10.435Z,14.07
2022-10-02T00:07:45.338Z,14.52
2022-10-02T00:10:22.790Z,10.85
2022-10-02T00:12:56.875Z,7.57
2022-10-02T00:15:28.667Z,8.45
2022-10-02T00:18:15.286Z,12.07
2022-10-02T00:21:06.227Z,13.30
2022-10-02T00:23:41.328Z,10.80
2022-10-02T00:26:20.549Z,5.80
2022-10-02T00:29:14.472Z,11.98
2022-10-02T00:32:02.417Z,10.32
2022-10-02T00:35:03.357Z,8.48
2022-10-02T00:38:00.358Z,11.48
2022-10-02T00:40:36.773Z,7.88
2022-10-02T00:43:11.046Z,11.95
2022-10-02T00:45:48.638Z,7.85
2022-10-02T00:48:44.375Z,8.77
2022-10-02T00:51:32.024Z,12.43
2022-10-02T00:54:13.712Z,7.72
2022-10-02T00:57:12.516Z,12.05
2022-10-02T00:59:53.974Z,8.90
2022-10-02T01:02:26.786Z,13.57
2022-10-02T01:04:54.385Z,11.40
2022-10-02T01:07:21.633Z,10.65
2022-10-02T01:09:48.681Z,14.82
2022-10-02T01:12:15.594Z,8.32
2022-10-02T01:14:42.351Z,11.15
2022-10-02T01:17:31.722Z,11.63
2022-10-02T01:20:01.316Z,12.13
2022-10-02T01:22:55.710Z,18.90
2022-10-02T01:25:22.410Z,10.20
2022-10-02T01:27:50.801Z,7.07
2022-10-02T01:30:19.555Z,12.85
2022-10-02T01:33:01.836Z,5.90
2022-10-02T01:35:31.861Z,8.02
2022-10-02T01:38:01.965Z,9.65
2022-10-02T01:40:37.196Z,9.93
2022-10-02T01:43:28.587Z,12.40
2022-10-02T01:46:24.332Z,12.30
2022-10-02T01:48:59.187Z,12.07
2022-10-02T01:52:01.309Z,11.00
2022-10-02T01:54:54.245Z,7.97
2022-10-02T01:57:54.199Z,15.05
2022-10-02T02:00:24.917Z,10.15
2022-10-02T02:03:12.657Z,14.30
2022-10-02T02:06:01.149Z,6.72
2022-10-02T02:08:51.062Z,8.85
2022-10-02T02:11:22.529Z,11.73
2022-10-02T02:14:27.296Z,10.68
2022-10-02T02:17:06.115Z,6.50
2022-10-02T02:19:44.942Z,10.25
2022-10-02T02:22:19.769Z,15.90
2022-10-02T02:24:57.890Z,9.43
2022-10-02T02:27:33.691Z,12.05
2022-10-02T02:30:19.606Z,8.80
2022-10-02T02:32:54.777Z,6.75
2022-10-02T02:35:35.950Z,10.93
2022-10-02T02:38:18.985Z,10.10
2022-10-02T02:40:47.283Z,9.63
2022-10-02T02:43:24.197Z,8.93
2022-10-02T02:46:05.262Z,8.07
2022-10-02T02:48:46.843Z,10.02
2022-10-02T02:51:15.732Z,12.13
2022-10-02T02:53:51.519Z,6.50
2022-10-02T02:56:20.057Z,4.68
2022-10-02T02:58:49.112Z,8.93
2022-10-02T03:01:15.915Z,9.85
2022-10-02T03:03:42.720Z,12.77
2022-10-02T03:06:21.663Z,8.80
2022-10-02T03:08:51.524Z,12.90
2022-10-02T03:11:39.003Z,8.73
2022-10-02T03:14:09.675Z,8.73
2022-10-02T03:17:13.817Z,7.88
2022-10-02T03:19:51.280Z,7.38
2022-10-02T03:23:00.813Z,8.50
2022-10-02T03:25:52.554Z,5.68
2022-10-02T03:28:50.478Z,7.72
2022-10-02T03:31:14.391Z,8.98
2022-10-02T03:33:41.906Z,5.75
2022-10-02T03:36:11.594Z,8.07
2022-10-02T03:38:39.043Z,5.32
2022-10-02T03:41:05.871Z,6.78
2022-10-02T03:43:32.535Z,7.65
2022-10-02T03:45:59.209Z,9.32
2022-10-02T03:48:25.874Z,13.55
2022-10-02T03:50:52.898Z,11.52
2022-10-02T03:53:29.283Z,12.48
2022-10-02T03:56:03.990Z,13.40
2022-10-02T03:58:32.008Z,12.15
2022-10-02T04:01:12.046Z,16.42
2022-10-02T04:03:46.398Z,14.38
2022-10-02T04:06:18.992Z,12.82
2022-10-02T04:08:51.352Z,8.55
2022-10-02T04:11:41.349Z,9.18
2022-10-02T04:14:28.133Z,14.15
2022-10-02T04:17:04.156Z,9.88
2022-10-02T04:19:41.788Z,10.00
2022-10-02T04:22:38.095Z,9.65
2022-10-02T04:25:39.124Z,9.55
2022-10-02T04:28:11.675Z,8.63
2022-10-02T04:30:38.355Z,8.80
2022-10-02T04:33:18.493Z,10.23
2022-10-02T04:36:03.203Z,10.85
2022-10-02T04:38:41.901Z,7.53
2022-10-02T04:41:36.492Z,8.85
2022-10-02T04:44:17.062Z,10.85
2022-10-02T04:47:02.230Z,9.82
2022-10-02T04:49:37.651Z,13.60
2022-10-02T04:52:07.093Z,10.65
2022-10-02T04:54:52.302Z,10.52
2022-10-02T04:57:44.808Z,13.65
2022-10-02T05:00:13.331Z,11.52
2022-10-02T05:02:58.757Z,11.35
2022-10-02T05:05:49.461Z,9.27
2022-10-02T05:08:31.014Z,16.15
2022-10-02T05:11:14.891Z,11.07
2022-10-02T05:13:41.533Z,14.68
2022-10-02T05:16:46.858Z,20.65
2022-10-02T05:19:27.460Z,16.85
2022-10-02T05:22:23.941Z,16.27
2022-10-02T05:25:14.010Z,10.23
2022-10-02T05:27:55.754Z,11.77
2022-10-02T05:30:22.426Z,12.85
2022-10-02T05:32:55.350Z,13.68
2022-10-02T05:35:56.228Z,18.35
2022-10-02T05:38:54.662Z,15.20
2022-10-02T05:41:33.248Z,18.35
2022-10-02T05:44:20.141Z,14.70
2022-10-02T05:47:05.394Z,15.27
2022-10-02T05:49:44.685Z,17.75
2022-10-02T05:52:13.502Z,15.63
2022-10-02T05:54:47.049Z,22.55
2022-10-02T05:57:41.300Z,20.45
2022-10-02T06:00:39.165Z,22.70
2022-10-02T06:03:26.397Z,19.50
2022-10-02T06:06:18.442Z,21.50
2022-10-02T06:09:00.590Z,15.32
2022-10-02T06:11:49.670Z,16.73
2022-10-02T06:14:27.471Z,19.85
2022-10-02T06:17:05.313Z,16.08
2022-10-02T06:19:44.672Z,11.43
2022-10-02T06:22:19.796Z,14.52
2022-10-02T06:24:58.511Z,17.63
2022-10-02T06:27:47.165Z,15.35
2022-10-02T06:30:18.632Z,15.02
2022-10-02T06:32:58.418Z,15.73
2022-10-02T06:36:04.599Z,15.23
2022-10-02T06:39:01.162Z,15.55
2022-10-02T06:41:59.977Z,24.83
2022-10-02T06:44:32.578Z,15.05
2022-10-02T06:47:26.951Z,16.70
2022-10-02T06:50:20.846Z,17.48
2022-10-02T06:52:58.008Z,12.30
2022-10-02T06:55:31.029Z,15.90
2022-10-02T06:58:14.556Z,16.05
2022-10-02T07:00:49.732Z,12.05
2022-10-02T07:03:24.280Z,17.85
2022-10-02T07:06:17.835Z,15.98
2022-10-02T07:09:00.988Z,11.40
2022-10-02T07:11:46.163Z,9.40
2022-10-02T07:14:27.999Z,16.52
2022-10-02T07:17:18.292Z,13.50
2022-10-02T07:20:02.438Z,18.73
2022-10-02T07:23:01.759Z,16.90
2022-10-02T07:26:02.415Z,13.57
2022-10-02T07:28:44.072Z,20.58
2022-10-02T07:31:32.017Z,14.35
2022-10-02T07:34:16.390Z,10.85
2022-10-02T07:37:05.817Z,18.92
2022-10-02T07:39:45.810Z,10.20
2022-10-02T07:42:36.615Z,12.82
2022-10-02T07:45:09.164Z,11.00
2022-10-02T07:48:18.122Z,15.30
2022-10-02T07:51:33.054Z,14.38
2022-10-02T07:54:08.991Z,13.48
2022-10-02T07:56:36.753Z,14.80
2022-10-02T07:59:11.984Z,12.52
2022-10-02T08:01:43.781Z,13.18
2022-10-02T08:04:17.235Z,12.75
2022-10-02T08:06:46.958Z,15.00
2022-10-02T08:09:33.535Z,13.15
2022-10-02T08:12:09.175Z,13.60
2022-10-02T08:14:45.278Z,11.02
2022-10-02T08:17:43.095Z,9.40
2022-10-02T08:20:25.354Z,17.33
2022-10-02T08:23:21.591Z,9.40
2022-10-02T08:25:59.306Z,7.55
2022-10-02T08:28:50.590Z,14.18
2022-10-02T08:31:17.295Z,15.18
2022-10-02T08:33:44.065Z,11.43
2022-10-02T08:36:28.593Z,13.88
2022-10-02T08:39:33.369Z,11.18
2022-10-02T08:42:09.094Z,12.07
2022-10-02T08:45:02.381Z,9.13
2022-10-02T08:48:02.756Z,12.55
2022-10-02T08:51:15.180Z,12.15
2022-10-02T08:54:18.444Z,8.60
2022-10-02T08:57:11.512Z,8.98
2022-10-02T08:59:50.552Z,7.70
2022-10-02T09:02:36.216Z,14.80
2022-10-02T09:05:14.566Z,12.93
2022-10-02T09:07:56.814Z,11.90
2022-10-02T09:10:38.487Z,13.90
2022-10-02T09:13:24.259Z,12.23
2022-10-02T09:16:09.159Z,4.63
2022-10-02T09:19:00.547Z,8.75
2022-10-02T09:21:42.704Z,9.95
2022-10-02T09:24:28.192Z,6.63
2022-10-02T09:27:41.040Z,6.75
2022-10-02T09:30:20.149Z,10.90
2022-10-02T09:32:55.250Z,10.25
2022-10-02T09:35:25.806Z,10.73
2022-10-02T09:38:07.585Z,11.40
2022-10-02T09:41:31.725Z,7.53
2022-10-02T09:44:10.116Z,6.53
2022-10-02T09:47:02.684Z,9.23
2022-10-02T09:49:58.214Z,9.95
2022-10-02T09:52:55.607Z,9.32
2022-10-02T09:55:53.647Z,8.13
2022-10-02T09:58:43.740Z,11.65
2022-10-02T10:01:29.886Z,9.48
2022-10-02T10:04:18.310Z,6.10
2022-10-02T10:07:16.256Z,8.40
2022-10-02T10:09:48.120Z,9.15
2022-10-02T10:12:31.759Z,8.05
2022-10-02T10:15:40.898Z,5.65
2022-10-02T10:18:42.702Z,7.40
2022-10-02T10:21:34.291Z,8.63
2022-10-02T10:24:15.609Z,6.53
2022-10-02T10:27:00.315Z,8.73
2022-10-02T10:29:31.759Z,3.58
2022-10-02T10:32:22.635Z,7.30
2022-10-02T10:34:49.265Z,6.82
2022-10-02T10:37:59.891Z,5.78
2022-10-02T10:40:42.583Z,8.27
2022-10-02T10:43:21.149Z,9.07
2022-10-02T10:46:06.481Z,10.15
2022-10-02T10:49:00.486Z,6.47
2022-10-02T10:51:48.420Z,7.72
2022-10-02T10:54:33.579Z,8.52
2022-10-02T10:57:22.758Z,7.03
2022-10-02T10:59:55.137Z,8.18
2022-10-02T11:02:40.588Z,6.63
2022-10-02T11:05:22.195Z,6.72
2022-10-02T11:08:26.137Z,9.20
2022-10-02T11:10:55.798Z,4.20
2022-10-02T11:13:23.648Z,5.32
2022-10-02T11:15:59.738Z,5.80
2022-10-02T11:19:00.052Z,4.35
2022-10-02T11:21:47.922Z,5.03
2022-10-02T11:24:29.795Z,6.68
2022-10-02T11:27:08.651Z,9.98
2022-10-02T11:30:32.876Z,7.05
2022-10-02T11:33:23.812Z,6.93
2022-10-02T11:36:09.573Z,8.70
2022-10-02T11:39:14.614Z,3.28
2022-10-02T11:41:50.059Z,5.35
2022-10-02T11:44:35.439Z,5.95
2022-10-02T11:47:20.896Z,8.07
2022-10-02T11:50:29.395Z,7.10
2022-10-02T11:53:07.032Z,5.30
2022-10-02T11:55:54.721Z,7.82
2022-10-02T11:58:44.036Z,6.15
2022-10-02T12:01:34.738Z,6.63
2022-10-02T12:04:40.720Z,4.63
2022-10-02T12:07:44.498Z,7.40
2022-10-02T12:10:33.206Z,5.55
2022-10-02T12:13:02.565Z,4.60
2022-10-02T12:15:38.031Z,4.70
2022-10-02T12:18:25.894Z,6.80
2022-10-02T12:21:28.862Z,6.82
2022-10-02T12:24:37.514Z,5.68
2022-10-02T12:27:29.197Z,11.40
2022-10-02T12:30:00.357Z,4.97
2022-10-02T12:32:49.622Z,6.90
2022-10-02T12:35:37.965Z,8.20
2022-10-02T12:38:22.878Z,6.70
2022-10-02T12:40:58.385Z,4.72
2022-10-02T12:43:50.498Z,5.32
2022-10-02T12:46:39.534Z,4.95
2022-10-02T12:49:13.018Z,7.30
2022-10-02T12:52:13.594Z,5.63
2022-10-02T12:55:06.814Z,8.90
2022-10-02T12:57:58.791Z,7.13
2022-10-02T13:00:39.338Z,12.60
2022-10-02T13:03:35.726Z,7.70
2022-10-02T13:06:11.155Z,4.97
2022-10-02T13:08:41.260Z,7.55
2022-10-02T13:11:36.206Z,4.47
2022-10-02T13:14:17.868Z,10.10
2022-10-02T13:17:10.507Z,3.85
2022-10-02T13:19:58.390Z,7.85
2022-10-02T13:22:31.254Z,15.27
2022-10-02T13:25:33.038Z,8.02
2022-10-02T13:28:33.757Z,7.70
2022-10-02T13:31:11.707Z,5.82
2022-10-02T13:33:52.995Z,5.13
2022-10-02T13:36:37.155Z,4.47
2022-10-02T13:39:22.564Z,2.78
2022-10-02T13:41:51.926Z,4.90
2022-10-02T13:44:33.867Z,2.58
2022-10-02T13:47:19.824Z,5.55
2022-10-02T13:49:53.960Z,2.47
2022-10-02T13:52:38.952Z,5.00
2022-10-02T13:55:31.873Z,2.42
2022-10-02T13:58:19.889Z,5.53
2022-10-02T14:01:05.059Z,3.58
2022-10-02T14:03:46.164Z,6.90
2022-10-02T14:06:29.604Z,7.40
2022-10-02T14:09:14.759Z,6.85
2022-10-02T14:12:20.517Z,6.95
2022-10-02T14:14:49.939Z,5.78
2022-10-02T14:17:38.404Z,5.90
2022-10-02T14:20:26.236Z,3.78
2022-10-02T14:23:01.052Z,5.35
2022-10-02T14:25:42.336Z,7.10
2022-10-02T14:28:36.162Z,5.18
2022-10-02T14:31:20.661Z,11.43
2022-10-02T14:34:21.643Z,10.13
2022-10-02T14:37:16.687Z,10.82
2022-10-02T14:39:45.606Z,9.10
2022-10-02T14:42:41.447Z,8.43
2022-10-02T14:45:45.967Z,6.40
2022-10-02T14:48:38.050Z,5.18
2022-10-02T14:51:43.243Z,6.57
2022-10-02T14:54:18.692Z,5.72
2022-10-02T14:56:57.839Z,4.22
2022-10-02T14:59:40.265Z,5.65
2022-10-02T15:02:09.596Z,10.70
2022-10-02T15:05:07.487Z,7.63
2022-10-02T15:07:36.031Z,6.60
2022-10-02T15:10:02.740Z,5.85
2022-10-02T15:12:52.905Z,3.78
2022-10-02T15:15:31.908Z,6.70
2022-10-02T15:18:38.935Z,5.53
2022-10-02T15:21:29.784Z,7.95
2022-10-02T15:23:58.803Z,6.85
2022-10-02T15:26:50.270Z,5.45
2022-10-02T15:29:39.844Z,17.42
2022-10-02T15:32:25.895Z,5.75
2022-10-02T15:35:23.552Z,8.98
2022-10-02T15:38:09.120Z,3.60
2022-10-02T15:40:59.454Z,8.35
2022-10-02T15:43:46.371Z,2.97
2022-10-02T15:46:58.865Z,5.35
2022-10-02T15:49:48.224Z,9.98
2022-10-02T15:52:46.889Z,8.45
2022-10-02T15:55:30.070Z,3.20
2022-10-02T15:58:19.601Z,8.48
2022-10-02T16:01:01.224Z,4.80
2022-10-02T16:03:50.638Z,8.95
2022-10-02T16:06:50.604Z,5.20
2022-10-02T16:09:20.052Z,6.18
2022-10-02T16:12:05.210Z,3.40
2022-10-02T16:14:37.698Z,3.58
2022-10-02T16:17:23.899Z,5.00
2022-10-02T16:19:58.415Z,6.10
2022-10-02T16:22:45.488Z,5.38
2022-10-02T16:25:36.614Z,6.47
2022-10-02T16:28:09.870Z,4.88
2022-10-02T16:30:59.665Z,5.60
2022-10-02T16:33:40.460Z,10.15
2022-10-02T16:36:31.910Z,13.35
2022-10-02T16:39:10.737Z,8.13
2022-10-02T16:42:03.514Z,5.82
2022-10-02T16:44:49.188Z,4.72
2022-10-02T16:47:28.611Z,8.07
2022-10-02T16:50:19.615Z,6.55
2022-10-02T16:52:57.692Z,3.35
2022-10-02T16:55:27.075Z,6.72
2022-10-02T16:58:18.304Z,8.25
2022-10-02T17:01:01.965Z,10.05
2022-10-02T17:03:34.463Z,3.75
2022-10-02T17:06:26.551Z,5.82
2022-10-02T17:09:26.705Z,7.50
2022-10-02T17:12:07.830Z,4.75
2022-10-02T17:14:56.742Z,4.90
2022-10-02T17:17:50.945Z,4.47
2022-10-02T17:20:31.839Z,7.18
2022-10-02T17:23:20.274Z,7.05
2022-10-02T17:25:49.742Z,6.55
2022-10-02T17:28:32.135Z,5.72
2022-10-02T17:31:01.849Z,6.60
2022-10-02T17:34:00.817Z,6.78
2022-10-02T17:36:36.843Z,4.35
2022-10-02T17:39:19.043Z,8.02
2022-10-02T17:41:53.682Z,7.03
2022-10-02T17:44:58.821Z,8.00
2022-10-02T17:47:52.653Z,4.53
2022-10-02T17:50:24.915Z,5.57
2022-10-02T17:53:20.824Z,4.00
2022-10-02T17:56:28.858Z,9.88
2022-10-02T17:59:34.268Z,5.18
2022-10-02T18:02:19.935Z,6.50
2022-10-02T18:05:23.407Z,9.65
2022-10-02T18:07:59.763Z,10.18
2022-10-02T18:11:07.159Z,4.63
2022-10-02T18:14:05.720Z,4.75
2022-10-02T18:17:09.719Z,10.70
2022-10-02T18:20:03.971Z,4.05
2022-10-02T18:23:05.928Z,5.22
2022-10-02T18:25:42.816Z,9.05
2022-10-02T18:28:33.957Z,5.13
2022-10-02T18:31:11.059Z,8.98
2022-10-02T18:33:46.853Z,5.78
2022-10-02T18:36:35.720Z,11.25
2022-10-02T18:39:27.362Z,6.63
2022-10-02T18:42:20.798Z,6.75
2022-10-02T18:45:27.060Z,6.47
2022-10-02T18:48:20.105Z,7.25
2022-10-02T18:51:31.218Z,8.57
2022-10-02T18:54:24.695Z,5.53
2022-10-02T18:57:09.255Z,9.07
2022-10-02T18:59:55.189Z,6.25
2022-10-02T19:02:30.087Z,9.23
2022-10-02T19:05:16.663Z,16.50
2022-10-02T19:08:18.393Z,7.63
2022-10-02T19:10:46.790Z,13.43
2022-10-02T19:13:29.013Z,16.33
2022-10-02T19:16:01.288Z,9.68
2022-10-02T19:18:29.670Z,12.15
2022-10-02T19:21:13.332Z,7.75
2022-10-02T19:23:55.717Z,6.95
2022-10-02T19:26:34.869Z,7.97
2022-10-02T19:29:01.605Z,8.38
2022-10-02T19:31:30.475Z,5.78
2022-10-02T19:34:02.292Z,6.05
2022-10-02T19:36:33.608Z,8.48
2022-10-02T19:39:07.648Z,9.25
2022-10-02T19:41:42.340Z,5.63
2022-10-02T19:44:26.063Z,8.65
2022-10-02T19:46:56.582Z,5.18
2022-10-02T19:49:39.299Z,15.43
2022-10-02T19:52:33.138Z,7.00
2022-10-02T19:55:04.297Z,5.50
2022-10-02T19:57:38.142Z,11.57
2022-10-02T20:00:08.083Z,7.20
2022-10-02T20:02:42.410Z,7.65
2022-10-02T20:05:35.034Z,7.18
2022-10-02T20:08:07.277Z,8.50
2022-10-02T20:10:41.379Z,6.38
2022-10-02T20:13:42.096Z,8.80
2022-10-02T20:16:44.582Z,7.13
2022-10-02T20:19:25.162Z,8.95
2022-10-02T20:22:11.902Z,10.38
2022-10-02T20:25:03.758Z,9.73
2022-10-02T20:27:53.062Z,8.70
2022-10-02T20:30:22.377Z,7.50
2022-10-02T20:32:59.571Z,9.88
2022-10-02T20:35:37.133Z,8.80
2022-10-02T20:38:14.708Z,7.53
2022-10-02T20:40:45.573Z,12.50
2022-10-02T20:43:40.424Z,12.32
2022-10-02T20:46:37.753Z,4.90
2022-10-02T20:49:14.959Z,11.90
2022-10-02T20:52:19.834Z,16.50
2022-10-02T20:55:18.038Z,16.67
2022-10-02T20:58:00.771Z,13.30
2022-10-02T21:00:42.799Z,11.10
2022-10-02T21:03:28.490Z,7.38
2022-10-02T21:06:14.514Z,11.43
2022-10-02T21:09:25.512Z,12.10
2022-10-02T21:12:28.949Z,8.43
2022-10-02T21:15:05.313Z,10.32
2022-10-02T21:17:50.635Z,8.18
2022-10-02T21:20:52.503Z,12.13
2022-10-02T21:24:05.636Z,12.07
2022-10-02T21:26:58.755Z,8.63
2022-10-02T21:29:41.603Z,8.50
2022-10-02T21:32:29.268Z,5.25
2022-10-02T21:35:06.785Z,7.43
2022-10-02T21:38:00.058Z,9.85
2022-10-02T21:40:57.711Z,12.25
2022-10-02T21:43:39.663Z,8.77
2022-10-02T21:46:41.231Z,7.38
2022-10-02T21:49:27.487Z,5.55
2022-10-02T21:52:15.906Z,7.05
2022-10-02T21:55:20.236Z,7.80
2022-10-02T21:58:07.979Z,9.77
2022-10-02T22:01:04.323Z,3.78
2022-10-02T22:03:34.050Z,10.05
2022-10-02T22:06:25.775Z,7.93
2022-10-02T22:09:03.753Z,7.78
2022-10-02T22:11:38.430Z,8.30
2022-10-02T22:14:13.791Z,8.90
2022-10-02T22:17:18.458Z,8.23
2022-10-02T22:20:15.574Z,8.43
2022-10-02T22:22:42.207Z,7.53
2022-10-02T22:25:27.123Z,6.40
2022-10-02T22:28:12.243Z,7.72
2022-10-02T22:31:05.520Z,8.80
2022-10-02T22:33:52.674Z,6.57
2022-10-02T22:36:31.938Z,8.52
2022-10-02T22:39:20.373Z,9.27
2022-10-02T22:42:10.170Z,9.57
2022-10-02T22:44:42.775Z,9.30
2022-10-02T22:47:22.510Z,5.57
2022-10-02T22:50:08.538Z,8.63
2022-10-02T22:52:52.903Z,6.43
2022-10-02T22:55:29.760Z,9.32
2022-10-02T22:58:14.550Z,11.02
2022-10-02T23:01:06.177Z,9.05
2022-10-02T23:04:01.485Z,10.65
2022-10-02T23:06:48.131Z,8.50
2022-10-02T23:09:25.989Z,7.35
2022-10-02T23:12:18.061Z,9.15
2022-10-02T23:15:10.810Z,5.32
2022-10-02T23:17:44.856Z,10.23
2022-10-02T23:20:11.981Z,5.60
2022-10-02T23:22:53.977Z,12.48
2022-10-02T23:25:26.700Z,5.93
2022-10-02T23:28:23.678Z,9.98
2022-10-02T23:31:12.870Z,6.07
2022-10-02T23:33:56.105Z,9.25
2022-10-02T23:36:26.212Z,5.32
2022-10-02T23:39:26.261Z,6.53
2022-10-02T23:41:56.381Z,12.75
2022-10-02T23:44:28.458Z,9.75
2022-10-02T23:47:25.269Z,7.47
2022-10-02T23:49:54.133Z,9.80
2022-10-02T23:52:29.530Z,10.90
2022-10-02T23:55:24.074Z,7.18
2022-10-02T23:58:20.093Z,9.75
